Time;durP1;ratioP1;P1;durP2;ratioP2;P2;SDS_P1;SDS_P2;PMS_P1;PMS_P2;Temp;Humidity;BMP_temperature;BMP_pressure;BME280_temperature;BME280_humidity;BME280_pressure;Samples;Min_cycle;Max_cycle;Signal;HPM_P1;HPM_P2
2021/11/28 00:00:26;;;;;;;6.38;3.78;;;;;;;;;;5020208;28;20140;-68
2021/11/28 00:02:53;;;;;;;16.35;5.95;;;;;;;;;;5030383;28;20095;-68
2021/11/28 00:05:23;;;;;;;10.60;5.32;;;;;;;;;;5017154;28;20046;-68
2021/11/28 00:13:10;;;;;;;13.90;5.40;;;;;;;;;;5030238;28;20057;-68
2021/11/28 00:15:37;;;;;;;13.98;5.50;;;;;;;;;;5024424;28;20140;-68
2021/11/28 00:18:04;;;;;;;11.82;4.90;;;;;;;;;;5024439;28;20085;-68
2021/11/28 00:20:32;;;;;;;14.80;5.47;;;;;;;;;;5023135;28;20120;-68
2021/11/28 00:22:58;;;;;;;11.60;5.67;;;;;;;;;;5019731;28;20092;-68
2021/11/28 00:25:26;;;;;;;11.80;5.70;;;;;;;;;;5017287;28;20145;-68
2021/11/28 00:27:52;;;;;;;10.32;5.57;;;;;;;;;;5023115;28;20342;-68
2021/11/28 00:30:21;;;;;;;10.85;5.13;;;;;;;;;;5018399;28;20454;-68
2021/11/28 00:32:48;;;;;;;12.93;5.20;;;;;;;;;;5022220;28;20085;-68
2021/11/28 00:35:15;;;;;;;11.40;4.90;;;;;;;;;;5022410;28;20096;-68
2021/11/28 00:37:42;;;;;;;11.83;5.23;;;;;;;;;;5020510;28;20083;-67
2021/11/28 00:40:08;;;;;;;12.75;5.35;;;;;;;;;;5009955;28;20320;-68
2021/11/28 00:42:35;;;;;;;7.60;3.70;;;;;;;;;;5025141;28;20080;-68
2021/11/28 00:45:02;;;;;;;13.63;5.10;;;;;;;;;;5021253;28;20080;-68
2021/11/28 00:47:28;;;;;;;10.10;5.03;;;;;;;;;;5022110;28;20083;-68
2021/11/28 00:50:17;;;;;;;8.23;4.75;;;;;;;;;;5030001;28;20509;-68
2021/11/28 00:52:44;;;;;;;7.75;4.80;;;;;;;;;;5022358;28;20697;-68
2021/11/28 00:55:12;;;;;;;9.35;5.15;;;;;;;;;;5017502;28;20128;-68
2021/11/28 00:57:39;;;;;;;11.27;4.70;;;;;;;;;;5017460;28;20570;-68
2021/11/28 01:00:06;;;;;;;7.75;4.85;;;;;;;;;;5016901;28;20085;-68
2021/11/28 01:02:34;;;;;;;17.38;5.22;;;;;;;;;;5017715;28;20125;-68
2021/11/28 01:05:01;;;;;;;11.15;4.43;;;;;;;;;;5021788;28;20516;-68
2021/11/28 01:07:28;;;;;;;9.85;4.97;;;;;;;;;;5023482;28;20328;-68
2021/11/28 01:09:54;;;;;;;13.13;5.32;;;;;;;;;;5021289;28;20085;-68
2021/11/28 01:12:21;;;;;;;9.38;4.47;;;;;;;;;;5025832;28;20088;-68
2021/11/28 01:14:48;;;;;;;9.65;4.47;;;;;;;;;;5027043;28;20093;-68
2021/11/28 01:17:15;;;;;;;10.43;4.82;;;;;;;;;;5019719;28;20049;-68
2021/11/28 01:19:42;;;;;;;9.45;5.00;;;;;;;;;;5023200;28;20126;-68
2021/11/28 01:22:10;;;;;;;7.20;4.78;;;;;;;;;;5022418;28;20565;-68
2021/11/28 01:24:37;;;;;;;10.05;4.95;;;;;;;;;;5021946;28;20505;-68
2021/11/28 01:27:05;;;;;;;10.32;4.90;;;;;;;;;;5021070;28;20132;-68
2021/11/28 01:29:31;;;;;;;9.40;5.00;;;;;;;;;;5024145;28;20073;-68
2021/11/28 01:31:58;;;;;;;10.43;4.63;;;;;;;;;;5020050;28;20081;-68
2021/11/28 01:34:25;;;;;;;10.02;4.75;;;;;;;;;;5025200;28;20220;-68
2021/11/28 01:36:52;;;;;;;12.05;4.93;;;;;;;;;;5021578;28;20099;-68
2021/11/28 01:39:20;;;;;;;9.40;4.45;;;;;;;;;;5018276;28;20140;-68
2021/11/28 01:41:47;;;;;;;7.82;4.43;;;;;;;;;;5019899;28;20081;-68
2021/11/28 01:44:13;;;;;;;7.68;4.40;;;;;;;;;;5021099;28;20150;-68
2021/11/28 01:46:40;;;;;;;5.55;3.45;;;;;;;;;;5018821;28;20076;-68
2021/11/28 01:49:08;;;;;;;8.80;4.60;;;;;;;;;;5020300;28;20052;-68
2021/11/28 01:51:34;;;;;;;12.23;4.75;;;;;;;;;;5021623;28;20073;-68
2021/11/28 01:54:01;;;;;;;9.07;4.63;;;;;;;;;;5015329;28;20140;-68
2021/11/28 01:56:28;;;;;;;7.67;4.33;;;;;;;;;;5021983;28;20077;-68
2021/11/28 01:58:54;;;;;;;10.07;4.63;;;;;;;;;;5024101;28;20588;-68
2021/11/28 02:01:21;;;;;;;8.18;4.20;;;;;;;;;;5022340;28;20417;-68
2021/11/28 02:03:48;;;;;;;9.38;4.25;;;;;;;;;;5018577;28;20129;-68
2021/11/28 02:06:16;;;;;;;10.02;3.95;;;;;;;;;;5018604;28;20107;-68
2021/11/28 02:08:43;;;;;;;11.60;4.88;;;;;;;;;;5015021;28;20100;-68
2021/11/28 02:11:11;;;;;;;9.55;4.40;;;;;;;;;;5019065;28;20092;-68
2021/11/28 02:13:38;;;;;;;10.18;4.68;;;;;;;;;;5024079;28;20081;-68
2021/11/28 02:16:05;;;;;;;5.63;3.22;;;;;;;;;;5020046;28;20089;-68
2021/11/28 02:18:32;;;;;;;12.63;4.90;;;;;;;;;;5017119;28;20528;-68
2021/11/28 02:21:00;;;;;;;10.68;4.75;;;;;;;;;;5021563;28;20084;-68
2021/11/28 02:23:27;;;;;;;7.90;4.30;;;;;;;;;;5023724;28;20087;-68
2021/11/28 02:25:58;;;;;;;8.77;3.60;;;;;;;;;;5023045;28;20133;-68
2021/11/28 02:28:25;;;;;;;9.52;4.47;;;;;;;;;;5022694;28;20532;-68
2021/11/28 02:30:52;;;;;;;7.57;4.40;;;;;;;;;;5025687;28;20109;-68
2021/11/28 02:33:19;;;;;;;7.22;2.90;;;;;;;;;;5024425;28;20088;-68
2021/11/28 02:35:45;;;;;;;9.20;4.32;;;;;;;;;;5024291;28;20132;-68
2021/11/28 02:38:14;;;;;;;7.25;3.63;;;;;;;;;;5017042;28;20057;-68
2021/11/28 02:40:41;;;;;;;10.23;4.47;;;;;;;;;;5016836;28;20082;-68
2021/11/28 02:43:07;;;;;;;;;;;;;;;;;;5027433;28;20101;-68
2021/11/28 02:45:34;;;;;;;10.13;4.32;;;;;;;;;;5023303;28;19985;-68
2021/11/28 02:48:02;;;;;;;13.23;4.13;;;;;;;;;;5008300;28;20153;-68
2021/11/28 02:50:29;;;;;;;7.72;4.25;;;;;;;;;;5023847;28;20081;-68
2021/11/28 02:52:58;;;;;;;9.50;4.03;;;;;;;;;;5024575;28;20049;-68
2021/11/28 02:55:27;;;;;;;10.30;4.63;;;;;;;;;;5016535;28;20099;-68
2021/11/28 02:57:55;;;;;;;10.50;4.10;;;;;;;;;;5016398;28;20045;-68
2021/11/28 03:00:23;;;;;;;9.77;4.50;;;;;;;;;;5018083;28;20521;-68
2021/11/28 03:02:50;;;;;;;8.88;3.95;;;;;;;;;;5017044;28;20124;-68
2021/11/28 03:05:17;;;;;;;8.95;4.05;;;;;;;;;;5020178;28;20084;-68
2021/11/28 03:07:44;;;;;;;11.45;4.35;;;;;;;;;;5018919;28;20088;-68
2021/11/28 03:10:29;;;;;;;7.93;3.88;;;;;;;;;;5025277;28;20073;-68
2021/11/28 03:12:56;;;;;;;11.32;4.20;;;;;;;;;;5019605;28;20516;-68
2021/11/28 03:15:23;;;;;;;10.35;3.55;;;;;;;;;;5019903;28;20089;-68
2021/11/28 03:17:49;;;;;;;9.43;4.47;;;;;;;;;;5020867;28;20084;-68
2021/11/28 03:20:16;;;;;;;9.75;4.53;;;;;;;;;;5021845;28;20140;-68
2021/11/28 03:22:47;;;;;;;12.00;4.22;;;;;;;;;;5020636;28;20133;-68
2021/11/28 03:25:14;;;;;;;10.90;4.10;;;;;;;;;;5014850;28;20589;-68
2021/11/28 03:27:43;;;;;;;9.23;4.25;;;;;;;;;;5018551;28;20042;-68
2021/11/28 03:30:13;;;;;;;10.48;4.78;;;;;;;;;;5015764;28;20496;-68
2021/11/28 03:32:40;;;;;;;7.82;3.78;;;;;;;;;;5017771;28;20134;-68
2021/11/28 03:35:07;;;;;;;11.80;4.30;;;;;;;;;;5021138;28;20045;-68
2021/11/28 03:37:34;;;;;;;8.52;3.60;;;;;;;;;;5023000;28;20054;-68
2021/11/28 03:40:04;;;;;;;11.35;4.40;;;;;;;;;;5027848;28;20092;-68
2021/11/28 03:42:30;;;;;;;9.68;4.68;;;;;;;;;;5025303;28;20091;-68
2021/11/28 03:44:57;;;;;;;12.98;5.07;;;;;;;;;;5024056;28;20073;-68
2021/11/28 03:47:23;;;;;;;10.02;4.95;;;;;;;;;;5026987;28;20054;-68
2021/11/28 03:49:50;;;;;;;17.17;5.80;;;;;;;;;;5027194;28;20477;-68
2021/11/28 03:52:17;;;;;;;7.90;4.00;;;;;;;;;;5025662;28;20456;-68
2021/11/28 03:54:43;;;;;;;11.35;4.60;;;;;;;;;;5020378;28;20387;-68
2021/11/28 03:57:10;;;;;;;10.73;4.70;;;;;;;;;;5026199;28;20521;-68
2021/11/28 03:59:37;;;;;;;8.43;4.60;;;;;;;;;;5026737;28;20460;-68
2021/11/28 04:02:03;;;;;;;9.60;4.05;;;;;;;;;;5025639;28;20076;-68
2021/11/28 04:04:30;;;;;;;13.70;4.82;;;;;;;;;;5026036;28;20059;-68
2021/11/28 04:06:57;;;;;;;7.05;4.20;;;;;;;;;;5022768;28;20087;-68
2021/11/28 04:09:23;;;;;;;7.75;4.30;;;;;;;;;;5024777;28;20140;-68
2021/11/28 04:11:50;;;;;;;8.68;3.58;;;;;;;;;;5024194;28;20520;-68
2021/11/28 04:14:18;;;;;;;7.90;4.35;;;;;;;;;;5020612;28;20133;-68
2021/11/28 04:16:44;;;;;;;11.10;4.50;;;;;;;;;;5019595;28;20073;-68
2021/11/28 04:19:11;;;;;;;8.32;3.80;;;;;;;;;;5022259;28;20053;-68
2021/11/28 04:21:42;;;;;;;7.17;4.13;;;;;;;;;;5023959;28;20402;-68
2021/11/28 04:24:08;;;;;;;9.07;3.90;;;;;;;;;;5022600;28;20485;-68
2021/11/28 04:26:35;;;;;;;8.88;4.22;;;;;;;;;;5026094;28;20077;-68
2021/11/28 04:29:02;;;;;;;7.20;3.50;;;;;;;;;;5022808;28;20073;-68
2021/11/28 04:31:28;;;;;;;8.85;4.38;;;;;;;;;;5023265;28;20559;-68
2021/11/28 04:33:55;;;;;;;7.97;3.85;;;;;;;;;;5025404;28;20050;-68
2021/11/28 04:36:22;;;;;;;7.97;3.90;;;;;;;;;;5024510;28;20468;-68
2021/11/28 04:38:48;;;;;;;9.00;3.70;;;;;;;;;;5023592;28;20065;-68
2021/11/28 04:41:15;;;;;;;8.85;3.60;;;;;;;;;;5020654;28;20527;-68
2021/11/28 04:43:42;;;;;;;10.60;4.75;;;;;;;;;;5022974;28;20128;-68
2021/11/28 04:46:08;;;;;;;12.15;4.25;;;;;;;;;;5019503;28;20089;-69
2021/11/28 04:48:36;;;;;;;9.02;4.35;;;;;;;;;;5027037;28;20045;-68
2021/11/28 04:51:02;;;;;;;5.33;2.93;;;;;;;;;;5019909;28;20124;-68
2021/11/28 04:53:29;;;;;;;10.13;4.25;;;;;;;;;;5021298;28;20311;-68
2021/11/28 04:55:56;;;;;;;12.10;3.40;;;;;;;;;;5023577;28;20080;-68
2021/11/28 04:58:22;;;;;;;13.00;4.80;;;;;;;;;;5021781;28;20136;-68
2021/11/28 05:00:49;;;;;;;9.82;4.20;;;;;;;;;;5022729;28;20081;-68
2021/11/28 05:03:16;;;;;;;10.30;4.18;;;;;;;;;;5003993;28;20050;-68
2021/11/28 05:05:42;;;;;;;8.83;3.77;;;;;;;;;;4998476;28;20057;-68
2021/11/28 05:08:09;;;;;;;9.73;3.30;;;;;;;;;;5017549;28;20045;-68
2021/11/28 05:10:35;;;;;;;13.73;5.00;;;;;;;;;;5021193;28;20085;-68
2021/11/28 05:13:02;;;;;;;8.88;4.60;;;;;;;;;;5018596;28;20133;-68
2021/11/28 05:15:28;;;;;;;9.37;4.63;;;;;;;;;;5019162;28;20103;-68
2021/11/28 05:17:55;;;;;;;8.40;4.22;;;;;;;;;;5021163;28;20144;-68
2021/11/28 05:20:22;;;;;;;7.20;3.50;;;;;;;;;;5024157;28;20103;-68
2021/11/28 05:22:48;;;;;;;8.27;4.68;;;;;;;;;;5021613;28;20375;-68
2021/11/28 05:25:16;;;;;;;13.45;4.93;;;;;;;;;;5020943;28;20192;-68
2021/11/28 05:27:46;;;;;;;10.80;4.80;;;;;;;;;;5024627;28;20140;-68
2021/11/28 05:30:12;;;;;;;15.02;4.90;;;;;;;;;;5027687;28;20473;-68
2021/11/28 05:32:39;;;;;;;14.25;4.38;;;;;;;;;;5024508;28;20137;-68
2021/11/28 05:35:06;;;;;;;6.88;4.30;;;;;;;;;;5019734;28;20473;-68
2021/11/28 05:37:33;;;;;;;7.82;5.05;;;;;;;;;;5015536;28;20490;-68
2021/11/28 05:40:00;;;;;;;11.77;4.30;;;;;;;;;;5019364;28;20073;-68
2021/11/28 05:42:27;;;;;;;8.95;4.50;;;;;;;;;;5021348;28;20072;-68
2021/11/28 05:44:53;;;;;;;6.83;3.60;;;;;;;;;;5020098;28;20053;-68
2021/11/28 05:47:20;;;;;;;7.07;3.72;;;;;;;;;;5021607;28;20084;-68
2021/11/28 05:49:46;;;;;;;15.00;4.73;;;;;;;;;;5019626;28;20054;-68
2021/11/28 05:52:15;;;;;;;8.45;4.43;;;;;;;;;;5022394;28;20108;-68
2021/11/28 05:54:42;;;;;;;9.43;4.97;;;;;;;;;;5017876;28;20080;-68
2021/11/28 05:57:09;;;;;;;9.68;4.40;;;;;;;;;;5017315;28;20129;-68
2021/11/28 05:59:35;;;;;;;11.77;4.70;;;;;;;;;;5016057;28;20120;-68
2021/11/28 06:02:02;;;;;;;7.70;4.65;;;;;;;;;;5015210;28;20080;-68
2021/11/28 06:04:29;;;;;;;14.32;4.70;;;;;;;;;;5013775;28;20084;-68
2021/11/28 06:06:56;;;;;;;9.27;4.47;;;;;;;;;;5020042;28;20057;-68
2021/11/28 06:09:23;;;;;;;12.45;5.18;;;;;;;;;;5024391;28;20453;-68
2021/11/28 06:11:49;;;;;;;10.02;4.63;;;;;;;;;;5023647;28;20486;-68
2021/11/28 06:14:16;;;;;;;11.80;4.78;;;;;;;;;;5021764;28;20378;-68
2021/11/28 06:16:42;;;;;;;11.13;5.00;;;;;;;;;;5020819;28;20046;-68
2021/11/28 06:19:09;;;;;;;10.73;4.50;;;;;;;;;;5020445;28;20390;-68
2021/11/28 06:21:35;;;;;;;11.23;4.70;;;;;;;;;;5018803;28;20144;-68
2021/11/28 06:24:03;;;;;;;15.25;4.72;;;;;;;;;;5017734;28;20453;-68
2021/11/28 06:26:29;;;;;;;12.40;4.67;;;;;;;;;;5016798;28;20093;-68
2021/11/28 06:28:55;;;;;;;10.13;4.75;;;;;;;;;;5016589;28;20384;-68
2021/11/28 06:31:23;;;;;;;10.40;3.75;;;;;;;;;;5016622;28;20064;-68
2021/11/28 06:33:49;;;;;;;9.63;4.38;;;;;;;;;;5015693;28;20129;-69
2021/11/28 06:36:16;;;;;;;9.73;4.47;;;;;;;;;;5016722;28;20430;-68
2021/11/28 06:38:44;;;;;;;11.63;5.32;;;;;;;;;;5002023;28;20570;-68
2021/11/28 06:41:10;;;;;;;10.45;4.80;;;;;;;;;;4981753;28;20055;-68
2021/11/28 06:43:37;;;;;;;9.00;4.10;;;;;;;;;;4981855;28;20405;-68
2021/11/28 06:46:04;;;;;;;9.38;4.60;;;;;;;;;;4979950;28;20308;-68
2021/11/28 06:48:31;;;;;;;11.13;5.20;;;;;;;;;;4983647;28;20383;-68
2021/11/28 06:50:57;;;;;;;8.52;4.47;;;;;;;;;;4976862;28;20130;-68
2021/11/28 06:53:24;;;;;;;10.40;4.70;;;;;;;;;;4976365;28;20515;-68
2021/11/28 06:55:50;;;;;;;6.07;3.47;;;;;;;;;;4970217;28;20047;-68
2021/11/28 06:58:17;;;;;;;8.93;4.65;;;;;;;;;;4977561;28;20133;-68
2021/11/28 07:00:44;;;;;;;10.52;4.43;;;;;;;;;;4979609;28;20520;-68
2021/11/28 07:03:11;;;;;;;8.60;4.80;;;;;;;;;;4980499;28;20051;-68
2021/11/28 07:05:42;;;;;;;9.95;5.00;;;;;;;;;;4977595;28;20051;-68
2021/11/28 07:08:09;;;;;;;8.32;4.57;;;;;;;;;;4981012;28;20051;-68
2021/11/28 07:10:38;;;;;;;9.10;4.45;;;;;;;;;;4984127;28;20058;-68
2021/11/28 07:13:05;;;;;;;10.23;4.35;;;;;;;;;;4986181;28;20130;-68
2021/11/28 07:15:34;;;;;;;5.72;3.60;;;;;;;;;;4983643;28;20145;-68
2021/11/28 07:18:01;;;;;;;9.80;4.30;;;;;;;;;;4985869;28;20050;-68
2021/11/28 07:20:27;;;;;;;9.38;4.57;;;;;;;;;;4981995;28;20414;-68
2021/11/28 07:22:54;;;;;;;7.25;3.95;;;;;;;;;;4985218;28;20054;-68
2021/11/28 07:25:21;;;;;;;9.85;4.47;;;;;;;;;;4984002;28;20524;-69
2021/11/28 07:27:47;;;;;;;11.30;4.70;;;;;;;;;;4984344;28;20081;-69
2021/11/28 07:30:14;;;;;;;14.07;4.72;;;;;;;;;;4984191;28;20089;-68
2021/11/28 07:32:40;;;;;;;5.80;2.40;;;;;;;;;;4972857;28;20141;-68
2021/11/28 07:35:07;;;;;;;9.75;4.75;;;;;;;;;;4985848;28;20392;-68
2021/11/28 07:37:34;;;;;;;12.07;4.00;;;;;;;;;;4982702;28;20078;-68
2021/11/28 07:40:02;;;;;;;8.13;3.97;;;;;;;;;;4981355;28;20233;-68
2021/11/28 07:42:28;;;;;;;6.95;4.35;;;;;;;;;;4982765;28;20086;-68
2021/11/28 07:44:56;;;;;;;6.93;3.85;;;;;;;;;;4983836;28;20125;-68
2021/11/28 07:47:22;;;;;;;6.83;3.90;;;;;;;;;;4979531;28;20561;-68
2021/11/28 07:49:48;;;;;;;7.13;4.57;;;;;;;;;;4982722;28;20328;-68
2021/11/28 07:52:15;;;;;;;8.70;4.47;;;;;;;;;;4983683;28;20085;-68
2021/11/28 07:54:42;;;;;;;6.88;4.10;;;;;;;;;;4988433;28;20493;-68
2021/11/28 07:57:08;;;;;;;7.57;4.17;;;;;;;;;;4985796;28;20049;-68
2021/11/28 07:59:36;;;;;;;10.35;4.57;;;;;;;;;;4985314;28;20511;-68
2021/11/28 08:02:03;;;;;;;10.85;4.85;;;;;;;;;;4981632;28;20105;-68
2021/11/28 08:04:29;;;;;;;8.60;4.88;;;;;;;;;;4979612;28;20042;-68
2021/11/28 08:06:56;;;;;;;6.85;3.85;;;;;;;;;;4979525;28;20423;-68
2021/11/28 08:09:22;;;;;;;7.10;4.15;;;;;;;;;;4986682;28;20514;-68
2021/11/28 08:11:49;;;;;;;10.30;4.28;;;;;;;;;;4979208;28;20049;-68
2021/11/28 08:14:16;;;;;;;7.27;3.50;;;;;;;;;;4978465;28;20130;-68
2021/11/28 08:16:42;;;;;;;7.57;3.47;;;;;;;;;;4980742;28;20657;-68
2021/11/28 08:19:09;;;;;;;7.32;3.38;;;;;;;;;;4987697;28;20042;-68
2021/11/28 08:21:35;;;;;;;7.18;3.28;;;;;;;;;;4985476;28;20097;-68
2021/11/28 08:24:04;;;;;;;9.27;4.10;;;;;;;;;;4986975;28;20046;-68
2021/11/28 08:26:31;;;;;;;9.25;3.60;;;;;;;;;;4982804;28;20157;-68
2021/11/28 08:28:58;;;;;;;7.07;3.97;;;;;;;;;;4990383;28;20145;-68
2021/11/28 08:31:25;;;;;;;5.43;3.60;;;;;;;;;;4982212;28;20149;-68
2021/11/28 08:33:51;;;;;;;14.50;4.47;;;;;;;;;;4985770;28;20053;-68
2021/11/28 08:36:21;;;;;;;8.35;4.10;;;;;;;;;;4975920;28;20142;-68
2021/11/28 08:38:49;;;;;;;8.40;3.67;;;;;;;;;;4979831;28;20523;-68
2021/11/28 08:41:15;;;;;;;;;;;;;;;;;;4981814;28;20101;-68
2021/11/28 08:43:43;;;;;;;10.30;4.60;;;;;;;;;;4987300;28;19968;-68
2021/11/28 08:46:09;;;;;;;10.52;4.53;;;;;;;;;;4985070;28;20054;-68
2021/11/28 08:48:36;;;;;;;6.20;3.63;;;;;;;;;;4982337;28;20538;-68
2021/11/28 08:51:03;;;;;;;6.75;3.70;;;;;;;;;;4982349;28;20487;-68
2021/11/28 08:53:30;;;;;;;12.55;3.95;;;;;;;;;;4982625;28;20050;-68
2021/11/28 08:55:56;;;;;;;8.17;3.37;;;;;;;;;;4984650;28;20089;-69
2021/11/28 08:58:22;;;;;;;6.72;3.80;;;;;;;;;;4987261;28;20124;-68
2021/11/28 09:00:49;;;;;;;10.13;4.43;;;;;;;;;;4978550;28;20133;-68
2021/11/28 09:03:17;;;;;;;5.72;3.40;;;;;;;;;;4978567;28;20061;-68
2021/11/28 09:05:44;;;;;;;5.38;3.33;;;;;;;;;;4984322;28;20052;-68
2021/11/28 09:08:10;;;;;;;5.63;3.60;;;;;;;;;;4984232;28;20145;-69
2021/11/28 09:10:41;;;;;;;6.33;3.50;;;;;;;;;;4978878;28;20089;-68
2021/11/28 09:13:08;;;;;;;10.48;3.95;;;;;;;;;;4982983;28;20058;-69
2021/11/28 09:15:35;;;;;;;7.00;3.53;;;;;;;;;;4981916;28;20054;-68
2021/11/28 09:18:25;;;;;;;8.10;3.20;;;;;;;;;;4984747;28;20058;-69
2021/11/28 09:20:58;;;;;;;8.73;4.20;;;;;;;;;;4977826;28;20089;-68
2021/11/28 09:26:21;;;;;;;4.90;3.22;;;;;;;;;;4972230;28;20086;-68
2021/11/28 09:28:47;;;;;;;5.00;2.73;;;;;;;;;;4984206;28;20078;-68
2021/11/28 09:31:13;;;;;;;6.53;3.35;;;;;;;;;;4986454;28;20388;-68
2021/11/28 09:33:41;;;;;;;7.63;3.43;;;;;;;;;;4981792;28;20046;-69
2021/11/28 09:36:07;;;;;;;12.98;3.40;;;;;;;;;;4979620;28;20395;-68
2021/11/28 09:38:35;;;;;;;9.68;3.13;;;;;;;;;;4986381;28;20077;-68
2021/11/28 09:41:08;;;;;;;8.00;3.20;;;;;;;;;;4983165;28;20258;-68
2021/11/28 09:43:35;;;;;;;3.55;2.78;;;;;;;;;;4981026;28;20085;-68
2021/11/28 09:46:03;;;;;;;6.63;3.50;;;;;;;;;;4979352;28;20050;-68
2021/11/28 09:48:31;;;;;;;6.00;3.28;;;;;;;;;;4983255;28;20050;-68
2021/11/28 09:50:57;;;;;;;;;;;;;;;;;;4981399;28;20141;-68
2021/11/28 09:53:34;;;;;;;7.18;3.05;;;;;;;;;;4983815;28;19925;-68
2021/11/28 09:56:02;;;;;;;5.55;2.72;;;;;;;;;;4978988;28;20057;-68
2021/11/28 09:58:29;;;;;;;7.07;3.13;;;;;;;;;;4981399;28;20074;-68
2021/11/28 10:00:57;;;;;;;7.80;3.35;;;;;;;;;;4982638;28;20054;-68
2021/11/28 10:03:23;;;;;;;;;;;;;;;;;;4985135;28;20129;-68
2021/11/28 10:05:51;;;;;;;9.25;3.50;;;;;;;;;;4985651;28;19929;-68
2021/11/28 10:08:23;;;;;;;4.63;2.78;;;;;;;;;;4986045;28;20154;-68
2021/11/28 10:11:09;;;;;;;6.10;3.35;;;;;;;;;;4980228;28;20117;-68
2021/11/28 10:13:35;;;;;;;5.15;2.92;;;;;;;;;;4979203;28;20051;-68
2021/11/28 10:16:02;;;;;;;6.75;3.42;;;;;;;;;;4978831;28;20484;-69
2021/11/28 10:18:28;;;;;;;7.35;3.60;;;;;;;;;;4978584;28;20133;-68
2021/11/28 10:20:56;;;;;;;7.15;3.42;;;;;;;;;;4982816;28;20092;-69
2021/11/28 10:23:22;;;;;;;8.23;3.30;;;;;;;;;;4985619;28;20104;-68
2021/11/28 10:25:49;;;;;;;9.45;3.40;;;;;;;;;;4982869;28;20078;-68
2021/11/28 10:28:15;;;;;;;6.15;2.90;;;;;;;;;;4983909;28;20077;-68
2021/11/28 10:30:44;;;;;;;6.47;3.20;;;;;;;;;;4983275;28;20141;-68
2021/11/28 10:33:13;;;;;;;10.73;3.10;;;;;;;;;;4981822;28;20082;-68
2021/11/28 10:35:58;;;;;;;7.00;3.35;;;;;;;;;;4978951;28;20458;-68
2021/11/28 10:38:31;;;;;;;9.25;3.58;;;;;;;;;;4983200;28;20096;-68
2021/11/28 10:40:57;;;;;;;7.78;3.38;;;;;;;;;;4975929;28;20047;-68
2021/11/28 10:43:26;;;;;;;5.07;2.97;;;;;;;;;;4981347;28;20137;-68
2021/11/28 10:45:52;;;;;;;6.25;2.75;;;;;;;;;;4989736;28;20132;-68
2021/11/28 10:48:23;;;;;;;5.90;2.75;;;;;;;;;;4986753;28;20058;-68
2021/11/28 10:50:49;;;;;;;10.68;3.40;;;;;;;;;;4984465;28;20054;-68
2021/11/28 10:53:21;;;;;;;5.03;3.00;;;;;;;;;;4975162;28;20140;-68
2021/11/28 10:55:49;;;;;;;7.90;3.08;;;;;;;;;;4989856;28;20323;-68
2021/11/28 10:58:19;;;;;;;4.05;2.85;;;;;;;;;;4990951;28;20046;-68
2021/11/28 11:00:46;;;;;;;5.75;2.80;;;;;;;;;;4987582;28;20279;-68
2021/11/28 11:03:21;;;;;;;4.35;2.50;;;;;;;;;;4988135;28;20109;-68
2021/11/28 11:05:49;;;;;;;7.45;2.90;;;;;;;;;;4988996;28;20054;-68
2021/11/28 11:08:16;;;;;;;;;;;;;;;;;;4981902;28;20515;-68
2021/11/28 11:10:44;;;;;;;6.05;2.63;;;;;;;;;;4979455;28;20454;-68
2021/11/28 11:13:12;;;;;;;12.13;3.10;;;;;;;;;;4983069;28;20461;-69
2021/11/28 11:15:38;;;;;;;;;;;;;;;;;;4989612;28;20054;-69
2021/11/28 11:18:06;;;;;;;9.35;2.92;;;;;;;;;;4984448;28;19979;-68
2021/11/28 11:20:34;;;;;;;3.90;2.38;;;;;;;;;;4985486;28;20590;-68
2021/11/28 11:23:00;;;;;;;;;;;;;;;;;;4989215;28;20105;-68
2021/11/28 11:25:31;;;;;;;5.78;2.72;;;;;;;;;;4992242;28;20350;-68
2021/11/28 11:28:13;;;;;;;5.68;2.67;;;;;;;;;;4988056;28;20574;-68
2021/11/28 11:30:40;;;;;;;5.55;2.90;;;;;;;;;;4990637;28;20149;-68
2021/11/28 11:33:08;;;;;;;7.72;2.42;;;;;;;;;;4983198;28;20137;-68
2021/11/28 11:35:39;;;;;;;7.72;3.45;;;;;;;;;;4980800;28;20050;-68
2021/11/28 11:38:08;;;;;;;7.68;2.70;;;;;;;;;;4988737;28;20058;-68
2021/11/28 11:40:35;;;;;;;5.75;2.58;;;;;;;;;;4981771;28;20502;-68
2021/11/28 11:43:02;;;;;;;5.90;2.80;;;;;;;;;;4987723;28;20047;-68
2021/11/28 11:45:31;;;;;;;5.63;3.15;;;;;;;;;;4986892;28;20483;-68
2021/11/28 11:47:58;;;;;;;6.63;3.10;;;;;;;;;;4987986;28;20129;-68
2021/11/28 11:50:27;;;;;;;4.88;2.83;;;;;;;;;;4985762;28;20629;-68
2021/11/28 11:52:54;;;;;;;6.95;2.83;;;;;;;;;;4985128;28;20078;-68
2021/11/28 11:55:22;;;;;;;4.10;2.80;;;;;;;;;;4983633;28;20078;-68
2021/11/28 11:57:48;;;;;;;;;;;;;;;;;;4974110;28;20095;-68
2021/11/28 12:00:34;;;;;;;6.20;2.88;;;;;;;;;;4985513;28;20032;-68
2021/11/28 12:03:11;;;;;;;7.70;3.05;;;;;;;;;;4982004;28;20038;-68
2021/11/28 12:05:39;;;;;;;4.55;2.80;;;;;;;;;;4986019;28;20636;-68
2021/11/28 12:08:15;;;;;;;7.97;3.53;;;;;;;;;;4987034;28;20446;-68
2021/11/28 12:10:47;;;;;;;6.88;3.45;;;;;;;;;;4987246;28;20150;-68
2021/11/28 12:13:26;;;;;;;6.35;2.70;;;;;;;;;;4982926;28;20516;-68
2021/11/28 12:15:53;;;;;;;11.77;2.90;;;;;;;;;;4983521;28;20070;-68
2021/11/28 12:18:37;;;;;;;6.18;2.80;;;;;;;;;;4981731;28;20090;-68
2021/11/28 12:21:04;;;;;;;8.35;3.30;;;;;;;;;;4981556;28;20130;-69
2021/11/28 12:23:54;;;;;;;7.60;3.20;;;;;;;;;;4981988;28;20086;-68
2021/11/28 12:26:27;;;;;;;7.38;3.30;;;;;;;;;;4985050;28;20410;-68
2021/11/28 12:28:55;;;;;;;8.15;3.28;;;;;;;;;;4982400;28;20125;-68
2021/11/28 12:31:27;;;;;;;4.88;3.08;;;;;;;;;;4981460;28;20090;-68
2021/11/28 12:34:02;;;;;;;6.32;3.28;;;;;;;;;;4984831;28;20088;-68
2021/11/28 12:36:31;;;;;;;6.35;3.10;;;;;;;;;;4986978;28;20133;-68
2021/11/28 12:39:00;;;;;;;8.63;3.25;;;;;;;;;;4989369;28;20097;-68
2021/11/28 12:44:13;;;;;;;5.32;3.13;;;;;;;;;;4983745;28;20388;-68
2021/11/28 12:46:43;;;;;;;7.00;3.35;;;;;;;;;;4986852;28;20137;-68
2021/11/28 12:49:30;;;;;;;5.53;3.38;;;;;;;;;;4993427;28;20082;-68
2021/11/28 12:52:17;;;;;;;7.85;3.22;;;;;;;;;;4982170;28;20146;-68
2021/11/28 12:54:45;;;;;;;4.88;3.13;;;;;;;;;;4984841;28;20070;-68
2021/11/28 12:57:18;;;;;;;6.25;3.35;;;;;;;;;;4980394;28;20101;-68
2021/11/28 13:00:03;;;;;;;8.73;3.40;;;;;;;;;;4984810;28;20467;-68
2021/11/28 13:02:44;;;;;;;6.63;3.70;;;;;;;;;;4984647;28;20050;-69
2021/11/28 13:08:02;;;;;;;6.05;3.55;;;;;;;;;;4982728;28;20077;-68
2021/11/28 13:10:29;;;;;;;6.82;3.40;;;;;;;;;;4982427;28;20409;-68
2021/11/28 13:12:56;;;;;;;7.80;3.78;;;;;;;;;;4978451;28;20151;-68
2021/11/28 13:15:25;;;;;;;5.60;2.85;;;;;;;;;;4986287;28;20074;-68
2021/11/28 13:17:53;;;;;;;6.85;3.15;;;;;;;;;;4974524;28;20086;-68
2021/11/28 13:20:19;;;;;;;5.53;3.38;;;;;;;;;;4977085;28;20133;-68
2021/11/28 13:22:46;;;;;;;6.88;3.40;;;;;;;;;;4980011;28;20074;-68
2021/11/28 13:25:33;;;;;;;5.50;3.28;;;;;;;;;;4986920;28;20455;-68
2021/11/28 13:28:19;;;;;;;6.57;3.28;;;;;;;;;;4982754;28;20053;-68
2021/11/28 13:30:48;;;;;;;8.80;3.45;;;;;;;;;;4985883;28;20464;-68
2021/11/28 13:33:16;;;;;;;5.50;2.67;;;;;;;;;;4982319;28;20145;-69
2021/11/28 13:35:51;;;;;;;9.25;3.63;;;;;;;;;;4981765;28;20077;-68
2021/11/28 13:38:22;;;;;;;7.32;3.45;;;;;;;;;;4988460;28;20541;-68
2021/11/28 13:41:02;;;;;;;5.65;3.13;;;;;;;;;;4963472;28;20074;-68
2021/11/28 13:43:30;;;;;;;7.05;2.67;;;;;;;;;;4985089;28;20064;-68
2021/11/28 13:45:57;;;;;;;4.82;3.03;;;;;;;;;;4984581;28;20074;-68
2021/11/28 13:48:36;;;;;;;8.52;3.00;;;;;;;;;;4983164;28;20051;-68
2021/11/28 13:51:03;;;;;;;6.18;3.17;;;;;;;;;;4983133;28;20053;-68
2021/11/28 13:53:30;;;;;;;8.07;2.72;;;;;;;;;;4978653;28;20134;-68
2021/11/28 13:55:56;;;;;;;8.93;3.23;;;;;;;;;;4985770;28;20046;-68
2021/11/28 13:58:24;;;;;;;8.50;3.65;;;;;;;;;;4983035;28;20081;-68
2021/11/28 14:00:50;;;;;;;7.43;2.70;;;;;;;;;;4981542;28;20129;-68
2021/11/28 14:03:17;;;;;;;6.85;3.15;;;;;;;;;;4980504;28;20519;-68
2021/11/28 14:05:44;;;;;;;6.20;3.03;;;;;;;;;;4987487;28;20073;-68
2021/11/28 14:08:10;;;;;;;8.00;3.30;;;;;;;;;;4981754;28;20507;-68
2021/11/28 14:10:36;;;;;;;4.40;2.78;;;;;;;;;;4979598;28;20118;-68
2021/11/28 14:13:03;;;;;;;6.15;2.97;;;;;;;;;;4978775;28;20125;-68
2021/11/28 14:15:31;;;;;;;6.18;3.17;;;;;;;;;;4979991;28;20085;-68
2021/11/28 14:17:58;;;;;;;5.80;3.15;;;;;;;;;;4986408;28;20541;-68
2021/11/28 14:20:28;;;;;;;8.70;3.33;;;;;;;;;;4985337;28;20054;-68
2021/11/28 14:22:55;;;;;;;6.78;3.30;;;;;;;;;;4987301;28;20137;-68
2021/11/28 14:25:32;;;;;;;7.38;2.95;;;;;;;;;;4984834;28;20078;-68
2021/11/28 14:28:10;;;;;;;2.92;2.20;;;;;;;;;;4984249;28;20439;-68
2021/11/28 14:30:38;;;;;;;7.20;2.92;;;;;;;;;;4980292;28;20082;-68
2021/11/28 14:33:09;;;;;;;9.00;3.10;;;;;;;;;;4976368;28;20042;-68
2021/11/28 14:35:44;;;;;;;4.25;2.88;;;;;;;;;;4972108;28;20082;-68
2021/11/28 14:38:20;;;;;;;7.38;2.83;;;;;;;;;;4980063;28;20550;-68
2021/11/28 14:41:10;;;;;;;4.80;2.80;;;;;;;;;;4984599;28;20089;-68
2021/11/28 14:43:46;;;;;;;8.73;3.30;;;;;;;;;;4971677;28;20070;-68
2021/11/28 14:46:14;;;;;;;8.93;3.90;;;;;;;;;;4983577;28;20479;-68
2021/11/28 14:48:42;;;;;;;7.57;3.72;;;;;;;;;;4981047;28;20543;-68
2021/11/28 14:51:13;;;;;;;4.88;3.10;;;;;;;;;;4982135;28;20078;-68
2021/11/28 14:53:41;;;;;;;4.68;2.65;;;;;;;;;;4982560;28;20065;-68
2021/11/28 14:56:08;;;;;;;7.07;3.28;;;;;;;;;;4976393;28;20078;-68
2021/11/28 14:58:36;;;;;;;7.22;3.20;;;;;;;;;;4983559;28;20141;-68
2021/11/28 15:01:07;;;;;;;6.38;3.08;;;;;;;;;;4981516;28;20046;-68